EATPANGBORN MEML
METARs for airports near EAT, sorted by distance:
N 0 nm 1248' KEAT 221755Z 29005KT 10SM 11/M05 A3015
SW 25 nm 1763' KELN 221753Z 18004KT 10SM CLR 11/M03 A3014
E 28 nm 1276' KEPH 221753Z 00000KT 10SM CLR 13/M06 A3013
E 37 nm 1188' KMWH 221752Z 32005KT 10SM CLR 13/M04 A3015
S 51 nm 1098' KYKM 221753Z VRB04KT 10SM CLR 13/M02 A3015
NE 69 nm 1304' KOMK 221753Z A3015
SE 75 nm 394' KRLD 221815Z 03006KT 10SM CLR 14/M02 A3018
SE 81 nm 410' KPSC 221753Z 00000KT 10SM FU CLR 14/M02 A3018
W 81 nm 32' KRNT 221753Z 33009KT 10SM CLR 12/06 A3020
W 85 nm 21' KBFI 221753Z VRB06KT 10SM SCT035 13/05 A3020
W 85 nm 432' KSEA 221753Z 01012KT 10SM SCT021 SCT250 12/03 A3019
W 86 nm 537' KPLU 221815Z VRB04G11KT 10SM CLR 13/04 A3017
W 89 nm 606' KPAE 221753Z 32010G18KT 10SM FEW015 SCT024 11/04 A3020
NW 91 nm 141' KAWO 221756Z 30009KT 270V350 10SM SCT025 12/06 A3021
W 93 nm 322' KTCM 221755Z 01010KT 10SM CLR 12/04 A3018
W 96 nm 294' KTIW 221753Z 03011G21KT 10SM SCT019 11/04 A3020
W 98 nm 301' KGRF 221755Z 34008KT 10SM CLR 12/03 A3016
TAFs for airports near EAT, sorted by distance:
N 0 nm 1248' KEAT KEAT 221739Z 2218/2318 VRB05KT P6SM SKC
  FM222100 14005KT P6SM SCT250
  FM230700 31007KT P6SM BKN250
  FM231400 28005KT P6SM BKN250
E 37 nm 1188' KMWH KMWH 221739Z 2218/2318 34005KT P6SM SKC
  FM230300 02004KT P6SM BKN250
  FM231200 01008KT P6SM BKN250
S 51 nm 1098' KYKM TAF KYKM 221720Z 2218/2318 VRB05KT P6SM SCT200
  FM230600 26005KT P6SM BKN200
SE 81 nm 410' KPSC TAF KPSC 221720Z 2218/2318 VRB04KT P6SM SCT200
  TEMPO 2218/2219 4SM FU FEW004
  FM221900 36006KT P6SM SCT200
  FM230600 VRB03KT P6SM BKN200
W 85 nm 21' KBFI TAF
  AMD KBFI 221808Z 2218/2318 03006KT P6SM SCT035
  FM221900 36009KT P6SM FEW200
  FM230500 VRB02KT P6SM FEW200
W 85 nm 432' KSEA KSEA 221722Z 2218/2324 03010KT P6SM SCT020 SCT200
  FM221900 01012KT P6SM FEW200
  FM230400 02006KT P6SM FEW200
W 89 nm 606' KPAE KPAE 221722Z 2218/2318 36007KT P6SM SCT010
  FM221900 34007KT P6SM FEW200
  FM230900 02003KT P6SM BKN250
W 93 nm 322' KTCM TAF KTCM 221300Z 2213/2319 01008KT 9999 SKC QNH3019INS
  BECMG 2217/2218 03010G15KT 9999 SKC QNH3002INS
  BECMG 2304/2305 03005KT 9999 SCT250 QNH2996INS TX17/2223Z TN04/2313Z
W 98 nm 301' KGRF TAF KGRF 221300Z 2213/2319 03006KT 9999 SKC 510003 QNH3020INS
  BECMG 2217/2218 03010G20KT 9999 SKC QNH3018INS
  BECMG 2304/2305 02009KT 9999 FEW180 QNH3002INS TX17/2223Z TN00/2213Z

Shortcut to this page: http://wxbay.com.

Data may contain errors.